Terminal Aerodrome Forecast
Issued by NWS

Home | Current Version | Previous Version | Text Only | Print | Product List | Glossary On
Versions: 1 2 3 4 5 6 7 8 9 10 11 12 13
275
FTUS45 KFGZ 252329
TAFPGA
TAF
KPGA 252329Z 2600/2624 VRB05KT P6SM SCT130 SCT200
      TEMPO 2600/2603 VRB15G25KT -SHRA BKN110=

USA.gov is the U.S. government's official web portal to all federal, state and local government web resources and services.